createdAt,value
2023-03-14T00:00:33.922Z,977.8
2023-03-14T00:01:48.285Z,977.8
2023-03-14T00:03:02.639Z,977.8
2023-03-14T00:04:16.977Z,977.8
2023-03-14T00:05:31.347Z,977.8
2023-03-14T00:06:45.698Z,977.8
2023-03-14T00:08:00.055Z,977.8
2023-03-14T00:09:14.396Z,977.7
2023-03-14T00:10:28.753Z,977.7
2023-03-14T00:11:43.112Z,977.7
2023-03-14T00:12:57.470Z,977.7
2023-03-14T00:14:11.814Z,977.7
2023-03-14T00:15:26.175Z,977.8
2023-03-14T00:17:54.878Z,977.8
2023-03-14T00:19:09.238Z,977.8
2023-03-14T00:20:22.644Z,977.8
2023-03-14T00:22:51.359Z,977.7
2023-03-14T00:24:05.709Z,977.7
2023-03-14T00:25:20.068Z,977.7
2023-03-14T00:26:34.414Z,977.6
2023-03-14T00:27:48.768Z,977.6
2023-03-14T00:29:03.114Z,977.6
2023-03-14T00:30:17.468Z,977.6
2023-03-14T00:31:31.822Z,977.6
2023-03-14T00:32:46.194Z,977.6
2023-03-14T00:34:00.537Z,977.6
2023-03-14T00:35:14.900Z,977.6
2023-03-14T00:36:28.294Z,977.7
2023-03-14T00:37:42.648Z,977.6
2023-03-14T00:40:11.357Z,977.7
2023-03-14T00:41:25.713Z,977.7
2023-03-14T00:42:40.062Z,977.8
2023-03-14T00:45:08.784Z,978
2023-03-14T00:46:23.133Z,978
2023-03-14T00:48:51.838Z,978
2023-03-14T00:51:19.619Z,978
2023-03-14T00:52:33.013Z,978
2023-03-14T00:53:47.374Z,977.9
2023-03-14T00:55:01.738Z,977.9
2023-03-14T00:56:16.077Z,977.9
2023-03-14T00:57:30.437Z,977.9
2023-03-14T00:58:44.783Z,977.9
2023-03-14T00:59:59.142Z,977.9
2023-03-14T01:01:13.503Z,977.9
2023-03-14T01:03:42.205Z,977.8
2023-03-14T01:04:56.573Z,977.9
2023-03-14T01:07:25.280Z,977.9
2023-03-14T01:11:08.339Z,978.1
2023-03-14T01:14:51.398Z,978.3
2023-03-14T01:16:05.750Z,978.3
2023-03-14T01:18:34.455Z,978.3
2023-03-14T01:19:48.812Z,978.3
2023-03-14T01:21:03.176Z,978.4
2023-03-14T01:22:17.532Z,978.3
2023-03-14T01:23:31.876Z,978.3
2023-03-14T01:24:45.278Z,978.4
2023-03-14T01:25:59.642Z,978.4
2023-03-14T01:27:14.002Z,978.4
2023-03-14T01:28:28.354Z,978.4
2023-03-14T01:29:42.702Z,978.4
2023-03-14T01:30:57.049Z,978.4
2023-03-14T01:32:11.415Z,978.4
2023-03-14T01:33:25.771Z,978.4
2023-03-14T01:35:54.481Z,978.4
2023-03-14T01:37:08.825Z,978.4
2023-03-14T01:38:23.192Z,978.4
2023-03-14T01:39:37.530Z,978.3
2023-03-14T01:44:34.953Z,978.4
2023-03-14T01:45:49.319Z,978.4
2023-03-14T01:47:03.671Z,978.3
2023-03-14T01:48:18.028Z,978.3
2023-03-14T01:49:31.433Z,978.3
2023-03-14T01:52:00.142Z,978.3
2023-03-14T01:53:14.489Z,978.3
2023-03-14T01:54:28.851Z,978.4
2023-03-14T01:55:43.202Z,978.4
2023-03-14T01:56:57.556Z,978.4
2023-03-14T01:58:11.900Z,978.3
2023-03-14T01:59:26.260Z,978.3
2023-03-14T02:01:54.973Z,978.2
2023-03-14T02:03:09.330Z,978.2
2023-03-14T02:04:23.673Z,978.3
2023-03-14T02:05:37.087Z,978.2
2023-03-14T02:06:51.434Z,978.2
2023-03-14T02:09:20.143Z,978.1
2023-03-14T02:10:34.491Z,978
2023-03-14T02:11:48.855Z,978
2023-03-14T02:14:17.557Z,978
2023-03-14T02:15:31.907Z,978
2023-03-14T02:18:00.613Z,978
2023-03-14T02:19:14.969Z,978
2023-03-14T02:20:29.000Z,978
2023-03-14T02:21:43.697Z,978
2023-03-14T02:22:58.046Z,978
2023-03-14T02:24:12.403Z,977.9
2023-03-14T02:25:26.751Z,977.9
2023-03-14T02:26:40.156Z,977.9
2023-03-14T02:27:54.508Z,977.9
2023-03-14T02:29:08.870Z,977.9
2023-03-14T02:31:37.570Z,977.8
2023-03-14T02:32:51.923Z,977.7
2023-03-14T02:36:34.994Z,977.7
2023-03-14T02:37:49.345Z,977.6
2023-03-14T02:39:03.695Z,977.6
2023-03-14T02:40:18.049Z,977.6
2023-03-14T02:41:32.401Z,977.5
2023-03-14T02:42:46.768Z,977.4
2023-03-14T02:44:01.113Z,977.4
2023-03-14T02:45:14.513Z,977.4
2023-03-14T02:47:43.220Z,977.4
2023-03-14T02:48:57.580Z,977.4
2023-03-14T02:50:11.943Z,977.3
2023-03-14T02:51:26.283Z,977.3
2023-03-14T02:52:40.634Z,977.3
2023-03-14T02:53:55.000Z,977.2
2023-03-14T02:55:09.340Z,977.2
2023-03-14T02:57:38.062Z,977.1
2023-03-14T02:58:52.411Z,977.2
2023-03-14T03:00:06.768Z,977.2
2023-03-14T03:01:21.124Z,977.2
2023-03-14T03:03:49.943Z,977.2
2023-03-14T03:05:04.305Z,977.2
2023-03-14T03:06:18.672Z,977.2
2023-03-14T03:07:33.017Z,977.2
2023-03-14T03:11:16.067Z,977.1
2023-03-14T03:12:30.424Z,977.1
2023-03-14T03:14:59.137Z,977.1
2023-03-14T03:16:13.492Z,977.1
2023-03-14T03:17:27.847Z,977.1
2023-03-14T03:18:42.201Z,977.2
2023-03-14T03:19:56.565Z,977.2
2023-03-14T03:21:10.919Z,977.3
2023-03-14T03:22:25.000Z,977.4
2023-03-14T03:24:53.981Z,977.4
2023-03-14T03:26:07.387Z,977.4
2023-03-14T03:28:36.097Z,977.3
2023-03-14T03:29:50.439Z,977.2
2023-03-14T03:32:19.153Z,977.2
2023-03-14T03:33:33.504Z,977.2
2023-03-14T03:34:47.859Z,977.2
2023-03-14T03:36:02.208Z,977.1
2023-03-14T03:38:30.915Z,977.1
2023-03-14T03:39:45.281Z,977
2023-03-14T03:40:59.625Z,977
2023-03-14T03:42:13.982Z,976.9
2023-03-14T03:43:28.336Z,976.9
2023-03-14T03:44:42.691Z,976.9
2023-03-14T03:45:57.055Z,976.9
2023-03-14T03:47:11.403Z,976.8
2023-03-14T03:48:25.757Z,976.8
2023-03-14T03:49:39.158Z,976.8
2023-03-14T03:50:53.518Z,976.7
2023-03-14T03:52:07.873Z,976.7
2023-03-14T03:53:22.220Z,976.7
2023-03-14T03:54:36.553Z,976.7
2023-03-14T03:57:05.277Z,976.7
2023-03-14T03:58:19.642Z,976.7
2023-03-14T03:59:33.986Z,976.7
2023-03-14T04:00:48.355Z,976.7
2023-03-14T04:02:02.703Z,976.7
2023-03-14T04:03:17.059Z,976.7
2023-03-14T04:04:31.417Z,976.6
2023-03-14T04:05:45.779Z,976.7
2023-03-14T04:06:59.188Z,976.7
2023-03-14T04:08:13.553Z,976.7
2023-03-14T04:09:27.910Z,976.7
2023-03-14T04:10:41.312Z,976.7
2023-03-14T04:11:55.648Z,976.7
2023-03-14T04:13:10.014Z,976.7
2023-03-14T04:14:24.361Z,976.8
2023-03-14T04:15:38.729Z,976.8
2023-03-14T04:16:53.067Z,976.8
2023-03-14T04:18:07.428Z,976.8
2023-03-14T04:19:21.775Z,976.7
2023-03-14T04:20:36.134Z,976.8
2023-03-14T04:21:50.491Z,976.8
2023-03-14T04:23:03.921Z,976.8
2023-03-14T04:24:18.278Z,976.8
2023-03-14T04:25:32.750Z,976.8
2023-03-14T04:26:47.106Z,976.8
2023-03-14T04:28:01.448Z,976.7
2023-03-14T04:30:30.167Z,976.7
2023-03-14T04:31:44.523Z,976.7
2023-03-14T04:34:13.231Z,976.7
2023-03-14T04:35:27.569Z,976.7
2023-03-14T04:36:41.923Z,976.7
2023-03-14T04:39:10.650Z,976.7
2023-03-14T04:40:24.986Z,976.6
2023-03-14T04:41:39.489Z,976.6
2023-03-14T04:42:53.847Z,976.6
2023-03-14T04:45:21.608Z,976.6
2023-03-14T04:46:35.952Z,976.6
2023-03-14T04:47:50.317Z,976.6
2023-03-14T04:49:04.660Z,976.7
2023-03-14T04:51:33.376Z,976.6
2023-03-14T04:52:47.732Z,976.5
2023-03-14T04:54:02.000Z,976.5
2023-03-14T04:56:30.800Z,976.5
2023-03-14T04:57:45.138Z,976.5
2023-03-14T04:58:59.436Z,976.6
2023-03-14T05:00:13.810Z,976.5
2023-03-14T05:01:27.189Z,976.5
2023-03-14T05:02:41.501Z,976.5
2023-03-14T05:03:55.792Z,976.5
2023-03-14T05:08:52.994Z,976.5
2023-03-14T05:10:07.303Z,976.4
2023-03-14T05:11:21.601Z,976.4
2023-03-14T05:12:35.899Z,976.4
2023-03-14T05:13:50.197Z,976.4
2023-03-14T05:15:04.506Z,976.4
2023-03-14T05:16:18.803Z,976.4
2023-03-14T05:17:33.112Z,976.4
2023-03-14T05:18:46.463Z,976.4
2023-03-14T05:20:00.760Z,976.3
2023-03-14T05:21:15.047Z,976.3
2023-03-14T05:23:43.657Z,976.3
2023-03-14T05:24:57.948Z,976.3
2023-03-14T05:26:12.249Z,976.4
2023-03-14T05:27:26.557Z,976.3
2023-03-14T05:31:09.471Z,976.2
2023-03-14T05:32:23.753Z,976.2
2023-03-14T05:33:38.069Z,976.2
2023-03-14T05:34:52.361Z,976.2
2023-03-14T05:37:20.956Z,976.2
2023-03-14T05:41:03.880Z,976.2
2023-03-14T05:43:32.466Z,976.2
2023-03-14T05:44:46.755Z,976.2
2023-03-14T05:46:01.063Z,976.1
2023-03-14T05:47:14.415Z,976.1
2023-03-14T05:48:28.715Z,976.1
2023-03-14T05:49:43.007Z,976.1
2023-03-14T05:52:11.620Z,976.1
2023-03-14T05:53:25.907Z,976.1
2023-03-14T05:54:40.223Z,976.1
2023-03-14T05:55:54.515Z,976
2023-03-14T05:57:08.812Z,976
2023-03-14T05:58:23.123Z,976
2023-03-14T05:59:37.415Z,976
2023-03-14T06:00:51.721Z,976.1
2023-03-14T06:02:06.021Z,976.1
2023-03-14T06:03:19.369Z,976.1
2023-03-14T06:04:33.659Z,976.1
2023-03-14T06:05:47.969Z,976.1
2023-03-14T06:08:16.575Z,976.1
2023-03-14T06:09:30.860Z,976.1
2023-03-14T06:10:45.164Z,976.1
2023-03-14T06:11:59.469Z,976.2
2023-03-14T06:13:13.777Z,976.2
2023-03-14T06:14:28.061Z,976.2
2023-03-14T06:15:42.364Z,976.2
2023-03-14T06:16:56.670Z,976.2
2023-03-14T06:18:10.971Z,976.2
2023-03-14T06:19:25.263Z,976.2
2023-03-14T06:20:39.582Z,976.2
2023-03-14T06:23:08.168Z,976.2
2023-03-14T06:24:22.469Z,976.2
2023-03-14T06:26:51.081Z,976.3
2023-03-14T06:28:05.372Z,976.3
2023-03-14T06:29:19.671Z,976.3
2023-03-14T06:30:33.978Z,976.3
2023-03-14T06:34:16.878Z,976.4
2023-03-14T06:35:31.183Z,976.4
2023-03-14T06:36:45.473Z,976.5
2023-03-14T06:37:59.770Z,976.5
2023-03-14T06:41:42.683Z,976.5
2023-03-14T06:42:56.977Z,976.5
2023-03-14T06:45:25.586Z,976.5
2023-03-14T06:46:38.939Z,976.5
2023-03-14T06:47:53.236Z,976.5
2023-03-14T06:49:07.525Z,976.5
2023-03-14T06:50:21.839Z,976.5
2023-03-14T06:51:36.138Z,976.5
2023-03-14T06:52:50.424Z,976.5
2023-03-14T06:54:04.744Z,976.5
2023-03-14T06:55:19.039Z,976.5
2023-03-14T06:56:33.332Z,976.6
2023-03-14T06:57:47.641Z,976.6
2023-03-14T07:00:16.244Z,976.6
2023-03-14T07:01:30.536Z,976.6
2023-03-14T07:02:43.894Z,976.6
2023-03-14T07:03:58.184Z,976.6
2023-03-14T07:05:12.490Z,976.6
2023-03-14T07:06:26.782Z,976.6
2023-03-14T07:07:41.089Z,976.6
2023-03-14T07:08:55.384Z,976.6
2023-03-14T07:10:09.000Z,976.6
2023-03-14T07:11:23.988Z,976.5
2023-03-14T07:12:37.000Z,976.5
2023-03-14T07:15:05.963Z,976.5
2023-03-14T07:16:19.000Z,976.5
2023-03-14T07:20:02.210Z,976.4
2023-03-14T07:21:16.000Z,976.4
2023-03-14T07:22:30.000Z,976.4
2023-03-14T07:24:59.406Z,976.4
2023-03-14T07:26:13.715Z,976.4
2023-03-14T07:28:42.316Z,976.4
2023-03-14T07:29:56.618Z,976.4
2023-03-14T07:31:10.923Z,976.4
2023-03-14T07:32:25.231Z,976.5
2023-03-14T07:33:38.000Z,976.5
2023-03-14T07:34:53.021Z,976.5
2023-03-14T07:36:07.000Z,976.5
2023-03-14T07:38:35.000Z,976.5
2023-03-14T07:39:50.000Z,976.5
2023-03-14T07:41:04.000Z,976.6
2023-03-14T07:42:18.000Z,976.6
2023-03-14T07:43:33.000Z,976.6
2023-03-14T07:44:47.418Z,976.6
2023-03-14T07:46:01.000Z,976.6
2023-03-14T07:48:30.295Z,976.6
2023-03-14T07:49:44.617Z,976.6
2023-03-14T07:52:13.218Z,976.6
2023-03-14T07:53:26.560Z,976.7
2023-03-14T07:54:40.879Z,976.7
2023-03-14T07:55:55.177Z,976.6
2023-03-14T07:59:38.082Z,976.6
2023-03-14T08:00:52.375Z,976.6
2023-03-14T08:03:20.976Z,976.6
2023-03-14T08:05:49.565Z,976.6
2023-03-14T08:07:03.873Z,976.6
2023-03-14T08:08:18.162Z,976.6
2023-03-14T08:10:46.776Z,976.5
2023-03-14T08:12:01.182Z,976.4
2023-03-14T08:13:15.000Z,976.4
2023-03-14T08:16:58.392Z,976.3
2023-03-14T08:18:12.692Z,976.3
2023-03-14T08:19:27.000Z,976.3
2023-03-14T08:20:41.000Z,976.3
2023-03-14T08:21:55.584Z,976.3
2023-03-14T08:23:09.000Z,976.2
2023-03-14T08:24:24.000Z,976.2
2023-03-14T08:25:38.499Z,976.2
2023-03-14T08:26:52.000Z,976.2
2023-03-14T08:28:07.097Z,976.2
2023-03-14T08:29:21.402Z,976.2
2023-03-14T08:31:49.989Z,976.2
2023-03-14T08:33:04.285Z,976.2
2023-03-14T08:34:18.594Z,976.2
2023-03-14T08:35:32.892Z,976.2
2023-03-14T08:36:47.194Z,976.2
2023-03-14T08:38:00.546Z,976.2
2023-03-14T08:39:14.850Z,976.1
2023-03-14T08:40:29.142Z,976.2
2023-03-14T08:42:57.740Z,976.2
2023-03-14T08:44:12.048Z,976.2
2023-03-14T08:45:26.348Z,976.2
2023-03-14T08:46:40.640Z,976.1
2023-03-14T08:50:23.531Z,976.2
2023-03-14T08:51:37.846Z,976.1
2023-03-14T08:52:52.144Z,976.1
2023-03-14T08:56:35.033Z,976.2
2023-03-14T08:59:03.632Z,976.2
2023-03-14T09:01:32.241Z,976.2
2023-03-14T09:02:46.673Z,976.2
2023-03-14T09:04:00.956Z,976.2
2023-03-14T09:06:29.556Z,976.2
2023-03-14T09:07:43.857Z,976.2
2023-03-14T09:08:58.171Z,976.2
2023-03-14T09:10:12.456Z,976.2
2023-03-14T09:11:26.759Z,976.2
2023-03-14T09:12:41.053Z,976.3
2023-03-14T09:13:55.357Z,976.3
2023-03-14T09:15:08.726Z,976.3
2023-03-14T09:16:23.024Z,976.3
2023-03-14T09:17:37.312Z,976.3
2023-03-14T09:20:05.922Z,976.4
2023-03-14T09:22:34.526Z,976.4
2023-03-14T09:23:48.826Z,976.4
2023-03-14T09:25:03.112Z,976.4
2023-03-14T09:26:17.422Z,976.4
2023-03-14T09:27:31.000Z,976.4
2023-03-14T09:30:00.318Z,976.4
2023-03-14T09:31:14.622Z,976.4
2023-03-14T09:34:57.518Z,976.4
2023-03-14T09:36:11.815Z,976.4
2023-03-14T09:37:26.117Z,976.4
2023-03-14T09:38:40.429Z,976.4
2023-03-14T09:39:54.723Z,976.5
2023-03-14T09:41:08.066Z,976.5
2023-03-14T09:42:22.375Z,976.5
2023-03-14T09:43:36.679Z,976.5
2023-03-14T09:44:50.974Z,976.5
2023-03-14T09:46:05.266Z,976.5
2023-03-14T09:47:19.579Z,976.5
2023-03-14T09:48:33.869Z,976.6
2023-03-14T09:51:02.471Z,976.6
2023-03-14T09:52:16.767Z,976.6
2023-03-14T09:53:31.064Z,976.6
2023-03-14T09:54:45.364Z,976.6
2023-03-14T09:57:13.981Z,976.6
2023-03-14T09:58:28.000Z,976.6
2023-03-14T09:59:42.582Z,976.6
2023-03-14T10:02:11.173Z,976.6
2023-03-14T10:03:24.528Z,976.6
2023-03-14T10:04:38.819Z,976.6
2023-03-14T10:05:53.120Z,976.6
2023-03-14T10:07:07.429Z,976.6
2023-03-14T10:08:21.713Z,976.6
2023-03-14T10:10:50.325Z,976.6
2023-03-14T10:12:04.625Z,976.6
2023-03-14T10:13:18.931Z,976.5
2023-03-14T10:14:33.230Z,976.6
2023-03-14T10:15:47.523Z,976.5
2023-03-14T10:17:01.830Z,976.5
2023-03-14T10:19:30.420Z,976.5
2023-03-14T10:20:43.770Z,976.5
2023-03-14T10:21:58.074Z,976.5
2023-03-14T10:24:26.672Z,976.5
2023-03-14T10:25:40.975Z,976.6
2023-03-14T10:29:23.870Z,976.5
2023-03-14T10:30:38.173Z,976.6
2023-03-14T10:31:52.483Z,976.6
2023-03-14T10:35:35.367Z,976.5
2023-03-14T10:36:49.678Z,976.5
2023-03-14T10:39:17.315Z,976.6
2023-03-14T10:41:45.927Z,976.6
2023-03-14T10:43:00.230Z,976.7
2023-03-14T10:44:14.514Z,976.6
2023-03-14T10:45:28.825Z,976.7
2023-03-14T10:46:43.112Z,976.7
2023-03-14T10:47:57.419Z,976.6
2023-03-14T10:49:11.715Z,976.7
2023-03-14T10:52:54.623Z,976.7
2023-03-14T10:54:08.912Z,976.6
2023-03-14T10:55:23.219Z,976.7
2023-03-14T10:57:50.861Z,976.6
2023-03-14T10:59:05.161Z,976.6
2023-03-14T11:00:19.480Z,976.5
2023-03-14T11:01:33.776Z,976.6
2023-03-14T11:02:48.081Z,976.5
2023-03-14T11:06:30.960Z,976.5
2023-03-14T11:08:59.562Z,976.4
2023-03-14T11:10:13.866Z,976.5
2023-03-14T11:11:28.176Z,976.4
2023-03-14T11:12:42.480Z,976.4
2023-03-14T11:15:11.080Z,976.4
2023-03-14T11:16:25.366Z,976.4
2023-03-14T11:17:38.709Z,976.4
2023-03-14T11:18:53.013Z,976.4
2023-03-14T11:20:07.320Z,976.3
2023-03-14T11:21:21.628Z,976.4
2023-03-14T11:22:35.923Z,976.5
2023-03-14T11:23:50.220Z,976.5
2023-03-14T11:26:18.823Z,976.6
2023-03-14T11:28:47.409Z,976.6
2023-03-14T11:31:16.000Z,976.6
2023-03-14T11:32:30.328Z,976.6
2023-03-14T11:33:44.000Z,976.6
2023-03-14T11:34:58.920Z,976.6
2023-03-14T11:36:13.221Z,976.7
2023-03-14T11:37:27.513Z,976.6
2023-03-14T11:38:41.815Z,976.6
2023-03-14T11:39:56.118Z,976.6
2023-03-14T11:42:24.716Z,976.6
2023-03-14T11:43:39.013Z,976.6
2023-03-14T11:44:53.312Z,976.6
2023-03-14T11:46:07.629Z,976.6
2023-03-14T11:47:21.930Z,976.6
2023-03-14T11:48:36.215Z,976.6
2023-03-14T11:49:50.518Z,976.6
2023-03-14T11:51:03.859Z,976.5
2023-03-14T11:53:32.459Z,976.6
2023-03-14T11:54:46.768Z,976.6
2023-03-14T11:56:01.078Z,976.6
2023-03-14T11:57:15.361Z,976.6
2023-03-14T11:58:29.663Z,976.6
2023-03-14T12:00:58.275Z,976.6
2023-03-14T12:02:12.578Z,976.5
2023-03-14T12:04:41.177Z,976.5
2023-03-14T12:05:55.465Z,976.5
2023-03-14T12:07:08.808Z,976.4
2023-03-14T12:10:51.706Z,976.4
2023-03-14T12:12:06.012Z,976.4
2023-03-14T12:13:20.319Z,976.3
2023-03-14T12:15:48.917Z,976.3
2023-03-14T12:17:03.212Z,976.3
2023-03-14T12:18:17.512Z,976.3
2023-03-14T12:19:31.808Z,976.2
2023-03-14T12:20:46.119Z,976.3
2023-03-14T12:22:00.426Z,976.3
2023-03-14T12:23:14.712Z,976.3
2023-03-14T12:24:28.071Z,976.2
2023-03-14T12:25:42.359Z,976.3
2023-03-14T12:26:56.654Z,976.3
2023-03-14T12:29:25.263Z,976.2
2023-03-14T12:30:39.563Z,976.2
2023-03-14T12:31:53.872Z,976.2
2023-03-14T12:33:08.165Z,976.2
2023-03-14T12:34:22.467Z,976.2
2023-03-14T12:35:36.755Z,976.2
2023-03-14T12:36:51.053Z,976.2
2023-03-14T12:38:05.364Z,976.1
2023-03-14T12:39:19.670Z,976.1
2023-03-14T12:40:33.958Z,976.1
2023-03-14T12:41:48.260Z,976.1
2023-03-14T12:44:16.863Z,976.2
2023-03-14T12:45:31.157Z,976.2
2023-03-14T12:46:45.454Z,976.2
2023-03-14T12:47:59.763Z,976.2
2023-03-14T12:49:13.118Z,976.2
2023-03-14T12:50:27.404Z,976.2
2023-03-14T12:51:41.702Z,976.2
2023-03-14T12:52:56.007Z,976.1
2023-03-14T12:56:38.904Z,976.1
2023-03-14T12:57:53.214Z,976.1
2023-03-14T13:00:21.805Z,976
2023-03-14T13:01:36.107Z,976
2023-03-14T13:02:50.405Z,976
2023-03-14T13:04:04.710Z,976
2023-03-14T13:06:33.319Z,976
2023-03-14T13:09:01.919Z,975.9
2023-03-14T13:13:59.114Z,975.7
2023-03-14T13:15:13.407Z,975.7
2023-03-14T13:17:42.023Z,975.6
2023-03-14T13:18:56.314Z,975.6
2023-03-14T13:20:09.661Z,975.5
2023-03-14T13:22:38.252Z,975.6
2023-03-14T13:23:51.608Z,975.6
2023-03-14T13:25:05.914Z,975.6
2023-03-14T13:26:20.000Z,975.7
2023-03-14T13:27:34.514Z,975.7
2023-03-14T13:28:48.823Z,975.7
2023-03-14T13:30:03.123Z,975.6
2023-03-14T13:31:17.409Z,975.7
2023-03-14T13:32:31.715Z,975.7
2023-03-14T13:36:14.613Z,975.7
2023-03-14T13:37:28.912Z,975.7
2023-03-14T13:39:57.516Z,975.7
2023-03-14T13:41:11.815Z,975.7
2023-03-14T13:42:26.109Z,975.7
2023-03-14T13:43:40.426Z,975.7
2023-03-14T13:44:54.715Z,975.7
2023-03-14T13:46:09.011Z,975.7
2023-03-14T13:47:23.317Z,975.7
2023-03-14T13:48:37.619Z,975.6
2023-03-14T13:49:51.911Z,975.6
2023-03-14T13:51:06.228Z,975.7
2023-03-14T13:52:20.000Z,975.6
2023-03-14T13:53:33.876Z,975.6
2023-03-14T13:54:48.175Z,975.6
2023-03-14T13:56:02.459Z,975.6
2023-03-14T13:57:16.763Z,975.6
2023-03-14T13:58:31.057Z,975.6
2023-03-14T14:02:13.959Z,975.6
2023-03-14T14:03:28.261Z,975.6
2023-03-14T14:04:42.570Z,975.6
2023-03-14T14:05:56.000Z,975.6
2023-03-14T14:07:11.159Z,975.7
2023-03-14T14:09:39.761Z,975.6
2023-03-14T14:10:54.065Z,975.6
2023-03-14T14:12:07.406Z,975.6
2023-03-14T14:13:21.710Z,975.5
2023-03-14T14:14:36.025Z,975.5
2023-03-14T14:17:04.620Z,975.6
2023-03-14T14:18:18.913Z,975.6
2023-03-14T14:19:33.211Z,975.6
2023-03-14T14:20:47.525Z,975.6
2023-03-14T14:22:01.814Z,975.6
2023-03-14T14:23:16.121Z,975.7
2023-03-14T14:24:30.409Z,975.6
2023-03-14T14:25:44.715Z,975.6
2023-03-14T14:26:59.006Z,975.6
2023-03-14T14:29:27.625Z,975.6
2023-03-14T14:30:41.926Z,975.5
2023-03-14T14:31:56.225Z,975.6
2023-03-14T14:33:10.526Z,975.6
2023-03-14T14:35:39.121Z,975.6
2023-03-14T14:36:53.420Z,975.7
2023-03-14T14:38:07.726Z,975.6
2023-03-14T14:39:22.024Z,975.7
2023-03-14T14:40:36.318Z,975.7
2023-03-14T14:41:50.613Z,975.7
2023-03-14T14:43:04.918Z,975.7
2023-03-14T14:44:19.000Z,975.7
2023-03-14T14:46:47.816Z,975.6
2023-03-14T14:48:02.126Z,975.6
2023-03-14T14:49:16.412Z,975.6
2023-03-14T14:51:45.017Z,975.6
2023-03-14T14:52:59.317Z,975.6
2023-03-14T14:54:13.611Z,975.7
2023-03-14T14:55:27.925Z,975.6
2023-03-14T14:56:42.228Z,975.6
2023-03-14T14:57:56.626Z,975.7
2023-03-14T14:59:11.000Z,975.7
2023-03-14T15:00:25.452Z,975.7
2023-03-14T15:01:39.007Z,975.7
2023-03-14T15:02:53.416Z,975.7
2023-03-14T15:04:07.823Z,975.7
2023-03-14T15:06:36.639Z,975.8
2023-03-14T15:07:51.067Z,975.8
2023-03-14T15:09:05.000Z,975.9
2023-03-14T15:10:19.880Z,975.9
2023-03-14T15:11:34.297Z,976
2023-03-14T15:12:48.721Z,976
2023-03-14T15:14:03.000Z,976.1
2023-03-14T15:15:17.000Z,976.2
2023-03-14T15:16:31.965Z,976.3
2023-03-14T15:17:46.366Z,976.3
2023-03-14T15:20:14.315Z,976.5
2023-03-14T15:21:28.000Z,976.5
2023-03-14T15:22:43.155Z,976.8
2023-03-14T15:23:57.559Z,977
2023-03-14T15:26:26.395Z,977.4
2023-03-14T15:27:40.803Z,977.6
2023-03-14T15:28:55.221Z,977.7
2023-03-14T15:30:09.000Z,977.8
2023-03-14T15:32:38.450Z,978.1
2023-03-14T15:33:52.872Z,978.3
2023-03-14T15:36:21.683Z,978.5
2023-03-14T15:37:36.000Z,978.5
2023-03-14T15:38:50.511Z,978.6
2023-03-14T15:40:04.000Z,978.6
2023-03-14T15:41:18.468Z,978.6
2023-03-14T15:42:32.871Z,978.6
2023-03-14T15:43:47.289Z,978.7
2023-03-14T15:47:30.523Z,979
2023-03-14T15:48:44.938Z,979.1
2023-03-14T15:49:59.349Z,979.1
2023-03-14T15:51:13.769Z,979.2
2023-03-14T15:52:28.182Z,979.2
2023-03-14T15:53:42.589Z,979.2
2023-03-14T15:54:57.003Z,979.4
2023-03-14T15:56:11.417Z,979.4
2023-03-14T15:57:24.967Z,979.5
2023-03-14T15:58:39.000Z,979.6
2023-03-14T15:59:53.791Z,979.7
2023-03-14T16:01:08.192Z,979.8
2023-03-14T16:02:22.000Z,979.8
2023-03-14T16:03:37.035Z,979.9
2023-03-14T16:04:51.443Z,980
2023-03-14T16:06:05.000Z,980.1
2023-03-14T16:07:20.261Z,980.1
2023-03-14T16:11:03.510Z,980.4
2023-03-14T16:12:17.928Z,980.6
2023-03-14T16:13:32.334Z,980.5
2023-03-14T16:14:46.866Z,980.7
2023-03-14T16:16:01.286Z,980.8
2023-03-14T16:17:15.701Z,980.9
2023-03-14T16:18:30.102Z,980.9
2023-03-14T16:19:44.531Z,981.1
2023-03-14T16:20:58.937Z,981.1
2023-03-14T16:22:13.352Z,981.2
2023-03-14T16:23:27.000Z,981.2
2023-03-14T16:24:42.000Z,981.3
2023-03-14T16:25:56.592Z,981.3
2023-03-14T16:27:11.000Z,981.4
2023-03-14T16:28:25.411Z,981.5
2023-03-14T16:30:54.000Z,981.6
2023-03-14T16:32:07.000Z,981.7
2023-03-14T16:33:22.000Z,981.8
2023-03-14T16:35:51.032Z,982
2023-03-14T16:37:05.443Z,982
2023-03-14T16:38:19.850Z,982.2
2023-03-14T16:39:34.271Z,982.2
2023-03-14T16:40:48.679Z,982.4
2023-03-14T16:43:17.512Z,982.6
2023-03-14T16:45:46.326Z,982.8
2023-03-14T16:47:00.739Z,982.9
2023-03-14T16:48:15.149Z,983
2023-03-14T16:50:43.982Z,983.2
2023-03-14T16:51:58.391Z,983.2
2023-03-14T16:53:12.806Z,983.3
2023-03-14T16:55:41.762Z,983.3
2023-03-14T16:56:56.185Z,983.3
2023-03-14T16:58:10.594Z,983.3
2023-03-14T17:00:39.000Z,983.3
2023-03-14T17:01:53.831Z,983.3
2023-03-14T17:03:08.213Z,983.3
2023-03-14T17:04:22.000Z,983.5
2023-03-14T17:05:37.000Z,983.8
2023-03-14T17:06:51.000Z,983.9
2023-03-14T17:10:34.728Z,984
2023-03-14T17:13:03.000Z,984.3
2023-03-14T17:14:17.000Z,984.3
2023-03-14T17:15:32.377Z,984.5
2023-03-14T17:16:46.000Z,984.5
2023-03-14T17:18:01.197Z,984.5
2023-03-14T17:19:15.609Z,984.6
2023-03-14T17:20:30.026Z,984.6
2023-03-14T17:21:43.000Z,984.7
2023-03-14T17:22:57.990Z,984.7
2023-03-14T17:24:12.000Z,984.8
2023-03-14T17:25:26.815Z,984.9
2023-03-14T17:26:41.226Z,984.9
2023-03-14T17:29:10.000Z,985.1
2023-03-14T17:30:24.461Z,985.2
2023-03-14T17:31:38.882Z,985.2
2023-03-14T17:32:53.339Z,985.2
2023-03-14T17:34:07.000Z,985.3
2023-03-14T17:35:21.354Z,985.4
2023-03-14T17:36:35.000Z,985.4
2023-03-14T17:37:50.176Z,985.4
2023-03-14T17:39:04.000Z,985.5
2023-03-14T17:40:19.000Z,985.5
2023-03-14T17:41:33.000Z,985.5
2023-03-14T17:42:48.000Z,985.5
2023-03-14T17:45:16.000Z,985.7
2023-03-14T17:46:31.000Z,985.7
2023-03-14T17:47:45.930Z,985.8
2023-03-14T17:49:00.000Z,985.9
2023-03-14T17:50:14.000Z,985.9
2023-03-14T17:51:28.000Z,986
2023-03-14T17:52:42.000Z,986.1
2023-03-14T17:53:57.000Z,986.1
2023-03-14T17:55:10.000Z,986.2
2023-03-14T17:56:24.000Z,986.3
2023-03-14T17:57:39.000Z,986.3
2023-03-14T17:58:53.000Z,986.3
2023-03-14T18:00:07.000Z,986.3
2023-03-14T18:01:22.000Z,986.4
2023-03-14T18:02:36.000Z,986.4
2023-03-14T18:03:51.000Z,986.4
2023-03-14T18:05:05.850Z,986.4
2023-03-14T18:06:20.000Z,986.4
2023-03-14T18:07:34.000Z,986.4
2023-03-14T18:08:49.000Z,986.5
2023-03-14T18:10:02.858Z,986.5
2023-03-14T18:11:16.000Z,986.6
2023-03-14T18:12:30.000Z,986.6
2023-03-14T18:13:45.000Z,986.6
2023-03-14T18:14:59.000Z,986.7
2023-03-14T18:16:14.000Z,986.7
2023-03-14T18:17:28.000Z,986.8
2023-03-14T18:18:43.261Z,986.8
2023-03-14T18:19:57.000Z,986.8
2023-03-14T18:21:12.000Z,986.8
2023-03-14T18:22:26.000Z,986.9
2023-03-14T18:23:41.000Z,986.9
2023-03-14T18:24:55.569Z,986.9
2023-03-14T18:26:10.000Z,986.9
2023-03-14T18:27:23.000Z,986.9
2023-03-14T18:28:38.000Z,987
2023-03-14T18:29:52.000Z,987
2023-03-14T18:31:07.000Z,987
2023-03-14T18:32:21.000Z,987
2023-03-14T18:33:35.000Z,987
2023-03-14T18:34:50.463Z,987
2023-03-14T18:36:04.924Z,987
2023-03-14T18:37:19.000Z,987.1
2023-03-14T18:38:33.000Z,987.1
2023-03-14T18:41:02.000Z,987.1
2023-03-14T18:42:16.000Z,987.2
2023-03-14T18:43:30.000Z,987.1
2023-03-14T18:44:45.000Z,987.2
2023-03-14T18:45:58.000Z,987.2
2023-03-14T18:47:13.000Z,987.2
2023-03-14T18:48:27.000Z,987.2
2023-03-14T18:49:42.000Z,987.3
2023-03-14T18:50:56.000Z,987.4
2023-03-14T18:52:11.000Z,987.4
2023-03-14T18:53:25.000Z,987.4
2023-03-14T18:54:40.000Z,987.5
2023-03-14T18:55:54.000Z,987.5
2023-03-14T18:57:09.000Z,987.6
2023-03-14T18:58:23.616Z,987.6
2023-03-14T18:59:38.000Z,987.6
2023-03-14T19:00:52.000Z,987.7
2023-03-14T19:02:06.126Z,987.8
2023-03-14T19:03:20.611Z,987.8
2023-03-14T19:04:35.060Z,987.8
2023-03-14T19:05:49.000Z,987.9
2023-03-14T19:07:04.009Z,988
2023-03-14T19:08:18.000Z,988
2023-03-14T19:09:32.000Z,988
2023-03-14T19:10:47.000Z,988.1
2023-03-14T19:12:01.000Z,988.2
2023-03-14T19:13:16.000Z,988.2
2023-03-14T19:14:30.810Z,988.3
2023-03-14T19:15:45.271Z,988.3
2023-03-14T19:16:59.000Z,988.3
2023-03-14T19:18:13.000Z,988.3
2023-03-14T19:19:27.000Z,988.4
2023-03-14T19:20:42.000Z,988.4
2023-03-14T19:21:56.000Z,988.3
2023-03-14T19:23:11.210Z,988.4
2023-03-14T19:24:25.674Z,988.5